Time;durP1;ratioP1;P1;durP2;ratioP2;P2;SDS_P1;SDS_P2;PMS_P1;PMS_P2;Temp;Humidity;BMP_temperature;BMP_pressure;BME280_temperature;BME280_humidity;BME280_pressure;Samples;Min_cycle;Max_cycle;Signal;HPM_P1;HPM_P2
2022/03/28 00:00:16;;;;;;;3.55;3.22;;;11.60;63.20;;;;;;5007112;28;20308;-73
2022/03/28 00:02:44;;;;;;;12.15;4.90;;;11.60;63.50;;;;;;5010967;28;20188;-73
2022/03/28 00:05:11;;;;;;;9.43;5.80;;;11.50;64.00;;;;;;5015521;28;20220;-73
2022/03/28 00:07:37;;;;;;;7.95;6.03;;;11.40;64.00;;;;;;5010735;28;20295;-72
2022/03/28 00:10:03;;;;;;;14.68;9.02;;;11.40;63.80;;;;;;5011131;28;20187;-72
2022/03/28 00:12:29;;;;;;;10.20;7.97;;;11.20;64.00;;;;;;5012184;28;20195;-72
2022/03/28 00:14:55;;;;;;;16.43;8.27;;;11.10;63.80;;;;;;5010701;28;20185;-72
2022/03/28 00:17:20;;;;;;;17.17;8.70;;;11.00;64.30;;;;;;5012717;28;20176;-72
2022/03/28 00:19:46;;;;;;;17.30;10.07;;;10.80;64.40;;;;;;5016159;28;20189;-71
2022/03/28 00:22:12;;;;;;;20.63;10.87;;;10.60;64.40;;;;;;5017448;28;20188;-72
2022/03/28 00:24:37;;;;;;;14.27;8.77;;;10.50;64.80;;;;;;5011536;28;20605;-73
2022/03/28 00:27:03;;;;;;;19.13;9.87;;;10.40;64.20;;;;;;5016815;28;20212;-72
2022/03/28 00:29:29;;;;;;;15.83;9.17;;;10.20;64.30;;;;;;5007288;28;20188;-73
2022/03/28 00:31:55;;;;;;;16.93;10.00;;;10.20;64.60;;;;;;5013089;28;20181;-72
2022/03/28 00:34:21;;;;;;;21.47;9.20;;;10.10;64.40;;;;;;5010737;28;20192;-73
2022/03/28 00:36:51;;;;;;;15.20;9.03;;;10.00;65.10;;;;;;5009700;28;20564;-73
2022/03/28 00:39:20;;;;;;;14.20;9.13;;;9.90;64.70;;;;;;5007141;28;20181;-73
2022/03/28 00:41:50;;;;;;;14.07;9.07;;;9.80;65.10;;;;;;5012705;28;20288;-72
2022/03/28 00:44:16;;;;;;;16.73;8.80;;;9.80;64.70;;;;;;5016553;28;20271;-73
2022/03/28 00:46:42;;;;;;;13.73;8.53;;;9.70;64.80;;;;;;5005855;28;20351;-73
2022/03/28 00:49:08;;;;;;;14.27;8.40;;;9.60;65.40;;;;;;5013834;28;20204;-73
2022/03/28 00:51:35;;;;;;;13.67;8.07;;;9.60;65.20;;;;;;5015292;28;20271;-73
2022/03/28 00:54:01;;;;;;;14.23;8.47;;;9.50;65.20;;;;;;5007209;28;20199;-73
2022/03/28 00:56:27;;;;;;;17.37;7.53;;;9.50;65.50;;;;;;5029413;28;20181;-72
2022/03/28 00:58:53;;;;;;;9.37;6.80;;;9.50;65.80;;;;;;5009132;28;20191;-72
2022/03/28 01:01:18;;;;;;;9.53;6.93;;;9.40;66.00;;;;;;5013775;28;20185;-71
2022/03/28 01:03:45;;;;;;;11.83;6.70;;;9.40;66.00;;;;;;5012342;28;20176;-71
2022/03/28 01:06:11;;;;;;;9.07;7.10;;;9.40;66.30;;;;;;5028689;28;20221;-71
2022/03/28 01:08:37;;;;;;;11.90;6.97;;;9.30;65.50;;;;;;5009940;28;20173;-71
2022/03/28 01:11:05;;;;;;;9.67;6.93;;;9.30;65.70;;;;;;5012444;28;20180;-71
2022/03/28 01:13:33;;;;;;;9.80;7.17;;;9.30;65.90;;;;;;5007744;28;20184;-72
2022/03/28 01:15:59;;;;;;;11.50;6.87;;;9.30;65.60;;;;;;5009494;28;20233;-73
2022/03/28 01:18:26;;;;;;;13.90;7.03;;;9.30;65.80;;;;;;5012468;28;20188;-72
2022/03/28 01:20:59;;;;;;;7.93;6.33;;;9.30;65.80;;;;;;5014063;28;20188;-72
2022/03/28 01:23:25;;;;;;;9.93;6.40;;;9.30;65.90;;;;;;5009447;28;20185;-72
2022/03/28 01:25:52;;;;;;;8.87;7.13;;;9.30;66.20;;;;;;5016200;28;20310;-71
2022/03/28 01:28:22;;;;;;;8.87;6.67;;;9.30;66.50;;;;;;5008123;28;20188;-73
2022/03/28 01:30:48;;;;;;;10.70;7.03;;;9.30;66.20;;;;;;5012003;28;20177;-71
2022/03/28 01:33:14;;;;;;;10.60;5.93;;;9.20;66.30;;;;;;5014090;28;20180;-73
2022/03/28 01:35:42;;;;;;;10.87;6.17;;;9.20;66.30;;;;;;5013218;28;20185;-73
2022/03/28 01:38:11;;;;;;;9.60;6.80;;;9.20;66.40;;;;;;5011927;28;20223;-73
2022/03/28 01:40:39;;;;;;;10.57;6.43;;;9.20;66.70;;;;;;5035962;28;20184;-72
2022/03/28 01:43:05;;;;;;;12.93;7.70;;;9.20;66.70;;;;;;5007956;28;20189;-72
2022/03/28 01:45:31;;;;;;;10.50;6.97;;;9.10;67.60;;;;;;5013726;28;20193;-72
2022/03/28 01:47:57;;;;;;;10.60;7.17;;;9.00;67.50;;;;;;5014614;28;20232;-72
2022/03/28 01:50:23;;;;;;;9.93;6.80;;;8.90;67.80;;;;;;5013892;28;20181;-72
2022/03/28 01:52:49;;;;;;;13.80;7.97;;;8.90;68.10;;;;;;5014454;28;20177;-72
2022/03/28 01:55:15;;;;;;;11.17;7.03;;;8.80;68.10;;;;;;5008139;28;20188;-73
2022/03/28 01:57:43;;;;;;;9.57;6.47;;;8.70;67.90;;;;;;5010171;28;20199;-72
2022/03/28 02:00:14;;;;;;;8.57;6.13;;;8.70;67.70;;;;;;5007430;28;20215;-72
2022/03/28 02:02:41;;;;;;;7.90;5.70;;;8.70;67.80;;;;;;5010455;28;20303;-72
2022/03/28 02:05:11;;;;;;;7.93;5.73;;;8.70;68.10;;;;;;5007157;28;20185;-72
2022/03/28 02:07:40;;;;;;;10.63;6.80;;;8.70;67.90;;;;;;5008137;28;20212;-72
2022/03/28 02:10:10;;;;;;;9.37;6.33;;;8.70;67.90;;;;;;5008730;28;20176;-72
2022/03/28 02:12:37;;;;;;;9.03;6.80;;;8.60;68.30;;;;;;5014421;28;20204;-73
2022/03/28 02:15:04;;;;;;;11.20;7.43;;;8.60;68.50;;;;;;5015090;28;20192;-73
2022/03/28 02:17:31;;;;;;;9.00;6.53;;;8.60;68.50;;;;;;5015636;28;20185;-73
2022/03/28 02:19:57;;;;;;;10.23;6.60;;;8.50;68.40;;;;;;5013861;28;20196;-73
2022/03/28 02:22:23;;;;;;;12.37;6.90;;;8.50;68.50;;;;;;5017605;28;20203;-72
2022/03/28 02:24:49;;;;;;;12.03;7.80;;;8.40;68.90;;;;;;5015818;28;20669;-72
2022/03/28 02:27:15;;;;;;;13.03;7.13;;;8.40;69.20;;;;;;5014975;28;20745;-72
2022/03/28 02:29:41;;;;;;;12.77;7.60;;;8.30;69.10;;;;;;5013724;28;20203;-72
2022/03/28 02:32:07;;;;;;;11.17;6.63;;;8.20;69.10;;;;;;5009900;28;20227;-72
2022/03/28 02:34:33;;;;;;;10.30;7.27;;;8.20;69.50;;;;;;5016351;28;20188;-73
2022/03/28 02:36:58;;;;;;;10.90;7.20;;;8.20;69.00;;;;;;5021699;28;20184;-74
2022/03/28 02:39:25;;;;;;;11.67;7.30;;;8.20;69.30;;;;;;5014065;28;20205;-72
2022/03/28 02:41:51;;;;;;;12.07;7.17;;;8.10;69.70;;;;;;5014840;28;20199;-72
2022/03/28 02:44:17;;;;;;;14.80;8.27;;;8.10;69.80;;;;;;5009895;28;20383;-73
2022/03/28 02:46:46;;;;;;;13.07;8.03;;;8.00;69.90;;;;;;5009697;28;20213;-72
2022/03/28 02:49:12;;;;;;;12.10;7.37;;;8.00;70.10;;;;;;5016097;28;20615;-72
2022/03/28 02:51:39;;;;;;;12.03;7.50;;;8.00;69.90;;;;;;5015753;28;20593;-73
2022/03/28 02:54:06;;;;;;;10.53;6.83;;;7.90;70.10;;;;;;5007468;28;20213;-71
2022/03/28 02:56:32;;;;;;;8.90;6.63;;;7.90;70.40;;;;;;5014025;28;20188;-73
2022/03/28 02:58:59;;;;;;;15.67;7.30;;;7.90;70.40;;;;;;5008868;28;20585;-73
2022/03/28 03:01:25;;;;;;;11.97;6.97;;;7.90;70.70;;;;;;5013242;28;20188;-73
2022/03/28 03:03:50;;;;;;;6.83;6.23;;;7.80;70.70;;;;;;5014375;28;20177;-73
2022/03/28 03:06:16;;;;;;;7.73;6.00;;;7.80;70.40;;;;;;5015374;28;20227;-73
2022/03/28 03:08:42;;;;;;;7.20;5.90;;;7.80;70.60;;;;;;5012264;28;20239;-73
2022/03/28 03:11:09;;;;;;;10.43;5.83;;;7.70;70.60;;;;;;5013151;28;20205;-72
2022/03/28 03:13:36;;;;;;;5.93;5.33;;;7.60;70.70;;;;;;5015789;28;20188;-72
2022/03/28 03:16:01;;;;;;;7.83;4.97;;;7.60;70.80;;;;;;5012673;28;20199;-72
2022/03/28 03:18:27;;;;;;;6.20;5.20;;;7.50;70.70;;;;;;5014985;28;20180;-72
2022/03/28 03:20:53;;;;;;;10.83;6.20;;;7.50;70.60;;;;;;5008197;28;20242;-72
2022/03/28 03:23:18;;;;;;;9.43;6.03;;;7.50;71.00;;;;;;5020734;28;20188;-71
2022/03/28 03:25:44;;;;;;;10.60;5.20;;;7.50;71.20;;;;;;5008796;28;20271;-72
2022/03/28 03:28:10;;;;;;;6.60;6.03;;;7.40;71.20;;;;;;5015222;28;20187;-71
2022/03/28 03:30:35;;;;;;;6.10;5.50;;;7.40;71.50;;;;;;5016141;28;20185;-73
2022/03/28 03:33:01;;;;;;;7.03;5.80;;;7.40;71.70;;;;;;5018112;28;21565;-71
2022/03/28 03:35:27;;;;;;;6.13;5.27;;;7.40;71.60;;;;;;5012022;28;20188;-71
2022/03/28 03:37:53;;;;;;;6.47;5.67;;;7.40;71.60;;;;;;5008869;28;20184;-71
2022/03/28 03:40:18;;;;;;;6.20;5.60;;;7.40;71.60;;;;;;5010458;28;20279;-71
2022/03/28 03:42:44;;;;;;;9.03;5.50;;;7.40;71.60;;;;;;5012557;28;20176;-72
2022/03/28 03:45:10;;;;;;;6.43;4.97;;;7.40;71.50;;;;;;5015109;28;20196;-72
2022/03/28 03:47:36;;;;;;;7.03;5.73;;;7.30;72.00;;;;;;5015520;28;20324;-72
2022/03/28 03:50:04;;;;;;;6.80;5.70;;;7.20;72.60;;;;;;5013344;28;20616;-72
2022/03/28 03:52:30;;;;;;;9.47;5.50;;;7.20;72.20;;;;;;5013678;28;20189;-71
2022/03/28 03:54:56;;;;;;;9.00;5.73;;;7.20;72.10;;;;;;5007450;28;20559;-73
2022/03/28 03:57:22;;;;;;;5.87;5.27;;;7.20;72.50;;;;;;5018919;28;20177;-73
2022/03/28 03:59:47;;;;;;;10.63;5.40;;;7.20;72.90;;;;;;5012518;28;20200;-74
2022/03/28 04:02:13;;;;;;;6.87;5.57;;;7.10;72.90;;;;;;5009695;28;20180;-72
2022/03/28 04:04:39;;;;;;;7.57;5.43;;;7.10;73.00;;;;;;5009207;28;20181;-72
2022/03/28 04:07:04;;;;;;;7.43;5.70;;;7.10;73.70;;;;;;5014000;28;20215;-73
2022/03/28 04:09:30;;;;;;;5.77;4.97;;;7.10;73.90;;;;;;5013582;28;20176;-73
2022/03/28 04:11:57;;;;;;;7.60;5.43;;;7.10;73.60;;;;;;5012593;28;20824;-72
2022/03/28 04:14:22;;;;;;;6.97;5.67;;;7.00;73.70;;;;;;5012693;28;20329;-72
2022/03/28 04:16:48;;;;;;;8.13;5.73;;;7.00;73.70;;;;;;5008434;28;20741;-73
2022/03/28 04:19:14;;;;;;;8.47;5.53;;;7.00;73.80;;;;;;5013139;28;20188;-73
2022/03/28 04:21:40;;;;;;;7.13;5.33;;;7.00;74.10;;;;;;5009375;28;20567;-73
2022/03/28 04:24:06;;;;;;;8.47;5.67;;;7.00;74.10;;;;;;5019383;28;20188;-72
2022/03/28 04:26:32;;;;;;;7.37;5.30;;;7.00;74.10;;;;;;5005175;28;20221;-72
2022/03/28 04:28:58;;;;;;;5.87;5.27;;;7.00;74.50;;;;;;5014549;28;20242;-72
2022/03/28 04:31:23;;;;;;;11.90;5.70;;;6.90;74.80;;;;;;5013188;28;20187;-73
2022/03/28 04:33:49;;;;;;;11.10;6.13;;;6.90;75.60;;;;;;5008851;28;20268;-73
2022/03/28 04:36:15;;;;;;;15.13;6.03;;;6.80;76.10;;;;;;5008433;28;20272;-73
2022/03/28 04:38:40;;;;;;;12.43;5.90;;;6.70;76.60;;;;;;5010759;28;20185;-73
2022/03/28 04:41:06;;;;;;;11.73;6.13;;;6.60;77.20;;;;;;5008853;28;20173;-73
2022/03/28 04:43:32;;;;;;;10.40;5.57;;;6.60;77.70;;;;;;5011629;28;20707;-72
2022/03/28 04:45:57;;;;;;;7.73;5.53;;;6.60;77.10;;;;;;5008877;28;20188;-73
2022/03/28 04:48:23;;;;;;;8.77;5.43;;;6.60;77.00;;;;;;5016592;28;20238;-74
2022/03/28 04:50:50;;;;;;;9.73;5.77;;;6.60;76.60;;;;;;5011492;28;20599;-72
2022/03/28 04:53:17;;;;;;;6.73;5.67;;;6.60;76.80;;;;;;5010791;28;20181;-73
2022/03/28 04:55:43;;;;;;;5.93;4.93;;;6.70;75.90;;;;;;5013347;28;20227;-73
2022/03/28 04:58:09;;;;;;;6.17;5.53;;;6.80;75.60;;;;;;5012329;28;20177;-72
2022/03/28 05:00:35;;;;;;;8.33;5.90;;;6.80;75.70;;;;;;5009549;28;20185;-73
2022/03/28 05:03:01;;;;;;;7.33;5.43;;;6.90;75.50;;;;;;5009748;28;20665;-73
2022/03/28 05:05:27;;;;;;;11.63;5.67;;;7.00;75.20;;;;;;5005909;28;20200;-74
2022/03/28 05:07:53;;;;;;;8.53;5.90;;;7.10;75.10;;;;;;5009274;28;20209;-72
2022/03/28 05:10:18;;;;;;;13.63;7.00;;;7.10;75.00;;;;;;5005717;28;20585;-73
2022/03/28 05:12:45;;;;;;;13.00;8.50;;;7.20;75.00;;;;;;5010143;28;20241;-73
2022/03/28 05:15:11;;;;;;;18.60;10.20;;;7.20;74.80;;;;;;5005234;28;20200;-72
2022/03/28 05:17:37;;;;;;;15.07;10.10;;;7.20;74.10;;;;;;5009055;28;20208;-72
2022/03/28 05:20:04;;;;;;;18.03;10.30;;;7.20;73.70;;;;;;5003091;28;20189;-71
2022/03/28 05:22:30;;;;;;;20.73;10.37;;;7.10;73.40;;;;;;5012754;28;20189;-71
2022/03/28 05:24:56;;;;;;;15.47;9.90;;;7.10;73.20;;;;;;5009849;28;20188;-70
2022/03/28 05:27:22;;;;;;;22.97;11.10;;;7.10;73.40;;;;;;5010605;28;20275;-73
2022/03/28 05:29:48;;;;;;;21.97;10.93;;;7.00;73.20;;;;;;5014422;28;20267;-71
2022/03/28 05:32:14;;;;;;;18.47;10.83;;;6.90;73.00;;;;;;5009882;28;20207;-72
2022/03/28 05:34:40;;;;;;;19.17;11.17;;;6.90;73.00;;;;;;5009057;28;20172;-70
2022/03/28 05:37:17;;;;;;;15.23;10.47;;;6.80;72.90;;;;;;5005611;28;20220;-71
2022/03/28 05:39:44;;;;;;;15.50;10.20;;;6.80;72.80;;;;;;5008251;28;20192;-72
2022/03/28 05:42:10;;;;;;;16.87;10.07;;;6.90;73.30;;;;;;5004090;28;20187;-68
2022/03/28 05:44:38;;;;;;;16.73;9.37;;;6.90;73.30;;;;;;5001485;28;20187;-68
2022/03/28 05:47:04;;;;;;;15.43;10.43;;;6.90;72.90;;;;;;5006000;28;20230;-71
2022/03/28 05:49:30;;;;;;;16.10;9.70;;;7.00;72.90;;;;;;5005402;28;20260;-72
2022/03/28 05:51:55;;;;;;;14.17;8.90;;;7.00;72.80;;;;;;5005750;28;20695;-72
2022/03/28 05:54:21;;;;;;;16.30;9.53;;;7.10;72.80;;;;;;5007713;28;20184;-71
2022/03/28 05:56:48;;;;;;;18.27;10.73;;;7.10;72.80;;;;;;5010427;28;20195;-71
2022/03/28 05:59:14;;;;;;;21.53;10.53;;;7.20;72.70;;;;;;5017425;28;20184;-71
2022/03/28 06:01:40;;;;;;;19.83;10.97;;;7.20;72.70;;;;;;5015859;28;20192;-71
2022/03/28 06:04:07;;;;;;;19.90;11.17;;;7.20;73.10;;;;;;5005548;28;20177;-71
2022/03/28 06:06:34;;;;;;;20.03;10.23;;;7.30;72.90;;;;;;5010072;28;20236;-70
2022/03/28 06:09:00;;;;;;;17.63;11.03;;;7.30;73.00;;;;;;5010750;28;20284;-70
2022/03/28 06:11:26;;;;;;;15.37;9.90;;;7.30;72.90;;;;;;5007417;28;20359;-70
2022/03/28 06:13:53;;;;;;;17.17;10.33;;;7.40;72.70;;;;;;5010059;28;20271;-72
2022/03/28 06:16:20;;;;;;;17.67;9.97;;;7.50;72.60;;;;;;5008938;28;20561;-70
2022/03/28 06:18:45;;;;;;;19.17;10.17;;;7.60;72.40;;;;;;5012727;28;20227;-71
2022/03/28 06:21:11;;;;;;;17.00;10.93;;;7.70;72.30;;;;;;5011762;28;20290;-70
2022/03/28 06:23:37;;;;;;;19.97;10.87;;;7.80;72.30;;;;;;5012092;28;20185;-71
2022/03/28 06:26:03;;;;;;;16.67;9.07;;;7.90;72.60;;;;;;5008905;28;20726;-71
2022/03/28 06:28:29;;;;;;;17.57;9.43;;;7.90;72.50;;;;;;5010166;28;20188;-70
2022/03/28 06:30:55;;;;;;;13.43;8.57;;;8.00;72.30;;;;;;5013389;28;20185;-71
2022/03/28 06:33:21;;;;;;;15.37;8.30;;;8.10;72.20;;;;;;5015059;28;20180;-71
2022/03/28 06:35:47;;;;;;;11.00;8.13;;;8.20;72.30;;;;;;5014437;28;20733;-70
2022/03/28 06:38:13;;;;;;;8.23;6.93;;;8.30;72.40;;;;;;5013979;28;20187;-70
2022/03/28 06:40:39;;;;;;;12.43;6.40;;;8.40;72.40;;;;;;5009184;28;20219;-69
2022/03/28 06:43:05;;;;;;;9.10;6.13;;;8.50;72.00;;;;;;5014832;28;20192;-69
2022/03/28 06:45:32;;;;;;;7.40;5.87;;;8.60;72.60;;;;;;5011549;28;20406;-71
2022/03/28 06:47:58;;;;;;;6.93;5.43;;;8.70;72.80;;;;;;5010073;28;20212;-72
2022/03/28 06:50:25;;;;;;;12.30;6.10;;;8.70;72.90;;;;;;5014908;28;20187;-72
2022/03/28 06:52:52;;;;;;;5.60;4.97;;;8.80;72.20;;;;;;5012261;28;20579;-71
2022/03/28 06:55:18;;;;;;;8.90;5.70;;;9.00;72.00;;;;;;5008967;28;20714;-71
2022/03/28 06:57:44;;;;;;;9.57;6.33;;;9.00;72.50;;;;;;5011328;28;20257;-72
2022/03/28 07:00:10;;;;;;;5.73;5.07;;;9.20;72.10;;;;;;5010730;28;20215;-72
2022/03/28 07:02:37;;;;;;;12.23;6.27;;;9.30;71.80;;;;;;5013958;28;20196;-72
2022/03/28 07:05:07;;;;;;;7.30;5.73;;;9.40;72.10;;;;;;5012761;28;20180;-72
2022/03/28 07:07:43;;;;;;;7.87;5.33;;;9.50;71.00;;;;;;5016182;28;20211;-72
2022/03/28 07:10:11;;;;;;;6.20;5.60;;;9.60;70.80;;;;;;5018002;28;20674;-73
2022/03/28 07:12:37;;;;;;;6.97;5.97;;;9.70;70.90;;;;;;5012014;28;20181;-71
2022/03/28 07:15:05;;;;;;;9.67;6.20;;;9.80;70.80;;;;;;5014058;28;20260;-71
2022/03/28 07:17:33;;;;;;;7.73;5.57;;;10.00;71.10;;;;;;5016283;28;20219;-72
2022/03/28 07:19:59;;;;;;;10.27;5.77;;;10.10;70.30;;;;;;5015879;28;20299;-71
2022/03/28 07:22:24;;;;;;;10.27;5.67;;;10.20;70.00;;;;;;5011421;28;20189;-72
2022/03/28 07:24:50;;;;;;;7.20;5.53;;;10.40;70.50;;;;;;5013329;28;20577;-71
2022/03/28 07:27:17;;;;;;;6.07;5.23;;;10.40;69.60;;;;;;5013515;28;20722;-71
2022/03/28 07:29:43;;;;;;;6.50;5.83;;;10.60;69.60;;;;;;5014354;28;20180;-71
2022/03/28 07:32:09;;;;;;;8.43;6.43;;;10.70;69.40;;;;;;5014464;28;20187;-71
2022/03/28 07:34:36;;;;;;;10.43;6.23;;;10.80;68.80;;;;;;5017105;28;20203;-71
2022/03/28 07:37:05;;;;;;;8.40;5.97;;;10.90;69.10;;;;;;5020519;28;20677;-71
2022/03/28 07:39:34;;;;;;;8.80;6.03;;;10.90;68.40;;;;;;5013362;28;20189;-71
2022/03/28 07:42:01;;;;;;;12.30;6.33;;;11.00;68.10;;;;;;5017977;28;20184;-73
2022/03/28 07:44:27;;;;;;;6.93;6.03;;;11.20;67.90;;;;;;5014806;28;20190;-71
2022/03/28 07:46:52;;;;;;;14.87;6.93;;;11.30;67.90;;;;;;5008319;28;20213;-71
2022/03/28 07:49:18;;;;;;;11.10;7.13;;;11.40;67.80;;;;;;5003219;28;20185;-69
2022/03/28 07:51:45;;;;;;;10.10;6.87;;;11.50;67.60;;;;;;4999243;28;21000;-72
2022/03/28 07:54:11;;;;;;;10.90;6.30;;;11.70;67.30;;;;;;5044524;28;20192;-71
2022/03/28 07:56:38;;;;;;;7.90;5.70;;;11.80;67.10;;;;;;5003947;28;20193;-72
2022/03/28 07:59:04;;;;;;;9.70;6.63;;;12.00;66.70;;;;;;5016874;28;20216;-72
2022/03/28 08:01:30;;;;;;;10.60;8.20;;;12.20;66.60;;;;;;5010357;28;20685;-72
2022/03/28 08:03:55;;;;;;;12.10;8.20;;;12.40;66.50;;;;;;5009947;28;20189;-72
2022/03/28 08:06:21;;;;;;;11.77;7.35;;;12.50;66.00;;;;;;5014348;28;20231;-71
2022/03/28 08:08:47;;;;;;;14.90;8.27;;;12.70;65.00;;;;;;5010765;28;20209;-72
2022/03/28 08:11:15;;;;;;;16.03;8.47;;;12.90;65.00;;;;;;5011230;28;20592;-72
2022/03/28 08:13:41;;;;;;;13.97;8.10;;;13.00;64.80;;;;;;5017819;28;20337;-72
2022/03/28 08:16:08;;;;;;;13.70;8.38;;;13.10;64.80;;;;;;5009567;28;20181;-72
2022/03/28 08:18:36;;;;;;;11.45;7.70;;;13.30;64.70;;;;;;5012788;28;20587;-71
2022/03/28 08:21:02;;;;;;;16.75;8.52;;;13.40;64.50;;;;;;5007547;28;20188;-72
2022/03/28 08:23:27;;;;;;;12.68;8.50;;;13.60;64.20;;;;;;5009144;28;20238;-71
2022/03/28 08:25:53;;;;;;;10.48;7.90;;;13.90;63.80;;;;;;5008834;28;20216;-71
2022/03/28 08:28:19;;;;;;;10.07;7.95;;;14.10;63.10;;;;;;5013384;28;20203;-71
2022/03/28 08:30:45;;;;;;;9.55;7.65;;;14.50;62.50;;;;;;5008111;28;20222;-71
2022/03/28 08:33:11;;;;;;;15.38;8.30;;;14.90;61.40;;;;;;5005342;28;21018;-71
2022/03/28 08:35:37;;;;;;;12.20;8.77;;;15.30;60.70;;;;;;5006394;28;20180;-71
2022/03/28 08:38:04;;;;;;;13.07;9.10;;;15.70;60.60;;;;;;5008960;28;20180;-71
2022/03/28 08:40:29;;;;;;;13.90;9.07;;;16.40;59.80;;;;;;5011210;28;20272;-71
2022/03/28 08:42:55;;;;;;;9.65;7.72;;;17.10;58.80;;;;;;5003950;28;20646;-71
2022/03/28 08:45:21;;;;;;;10.00;7.95;;;17.90;58.20;;;;;;5012324;28;20612;-71
2022/03/28 08:47:49;;;;;;;11.70;8.80;;;18.60;56.40;;;;;;5012269;28;20220;-72
2022/03/28 08:50:16;;;;;;;9.55;8.30;;;19.50;55.00;;;;;;5008097;28;20764;-73
2022/03/28 08:52:43;;;;;;;10.30;8.40;;;20.30;53.90;;;;;;5004032;28;20211;-72
2022/03/28 08:55:13;;;;;;;12.95;9.48;;;21.10;53.20;;;;;;5011181;28;20269;-72
2022/03/28 08:57:39;;;;;;;12.23;9.10;;;21.90;52.00;;;;;;5010289;28;20195;-72
2022/03/28 09:00:10;;;;;;;14.52;8.85;;;22.70;50.20;;;;;;5008672;28;20180;-71
2022/03/28 09:02:49;;;;;;;12.48;8.93;;;23.20;48.70;;;;;;5007362;28;20271;-71
2022/03/28 09:05:16;;;;;;;10.15;8.88;;;23.30;47.80;;;;;;5015844;28;20946;-73
2022/03/28 09:07:43;;;;;;;15.27;8.65;;;23.40;47.80;;;;;;5005887;28;20259;-72
2022/03/28 09:10:17;;;;;;;10.93;8.85;;;23.40;47.80;;;;;;5005973;28;20181;-72
2022/03/28 09:12:59;;;;;;;10.52;8.52;;;23.50;47.60;;;;;;5007495;28;20279;-72
2022/03/28 09:15:26;;;;;;;10.63;8.02;;;24.00;48.00;;;;;;5007158;28;20215;-73
2022/03/28 09:17:56;;;;;;;12.80;9.02;;;24.50;47.60;;;;;;5007977;28;20180;-72
2022/03/28 09:20:23;;;;;;;9.10;8.13;;;24.90;46.40;;;;;;5007461;28;20721;-72
2022/03/28 09:22:49;;;;;;;9.45;8.63;;;24.80;45.60;;;;;;5007863;28;20182;-72
2022/03/28 09:25:18;;;;;;;13.50;8.25;;;24.70;45.70;;;;;;5008893;28;20189;-72
2022/03/28 09:27:44;;;;;;;15.57;8.90;;;24.60;45.70;;;;;;5003999;28;20236;-69
2022/03/28 09:30:20;;;;;;;9.23;7.85;;;24.40;46.40;;;;;;5007427;28;20965;-72
2022/03/28 09:32:52;;;;;;;13.52;7.45;;;24.30;46.70;;;;;;5009575;28;20204;-71
2022/03/28 09:35:20;;;;;;;9.90;8.05;;;24.40;46.90;;;;;;5006275;28;20177;-71
2022/03/28 09:37:51;;;;;;;8.93;7.25;;;24.60;47.00;;;;;;5005076;28;20208;-71
2022/03/28 09:40:51;;;;;;;11.95;8.05;;;25.10;46.90;;;;;;5009196;28;20185;-72
2022/03/28 09:43:23;;;;;;;14.00;7.57;;;25.90;45.80;;;;;;5039485;28;20190;-71
2022/03/28 09:45:54;;;;;;;10.52;8.32;;;26.30;44.80;;;;;;5036930;28;20230;-71
2022/03/28 09:48:22;;;;;;;11.00;7.43;;;26.80;44.90;;;;;;5039242;28;20253;-72
2022/03/28 09:51:03;;;;;;;9.77;7.40;;;27.30;44.50;;;;;;5035949;28;20199;-70
2022/03/28 09:53:39;;;;;;;7.57;6.85;;;28.00;44.60;;;;;;5036345;28;20241;-68
2022/03/28 09:56:10;;;;;;;26.65;8.65;;;28.80;43.50;;;;;;5037061;28;20194;-69
2022/03/28 09:58:59;;;;;;;14.10;8.40;;;29.70;43.30;;;;;;5037913;28;20190;-70
2022/03/28 10:01:38;;;;;;;10.65;7.68;;;30.20;41.00;;;;;;5017888;28;20201;-73
2022/03/28 10:04:09;;;;;;;12.18;8.60;;;30.30;41.20;;;;;;5033533;28;20194;-72
2022/03/28 10:06:37;;;;;;;9.80;7.40;;;30.40;41.50;;;;;;5034809;28;20231;-72
2022/03/28 10:09:07;;;;;;;9.93;7.60;;;30.20;41.10;;;;;;5018136;28;20603;-73
2022/03/28 10:11:33;;;;;;;13.38;7.88;;;30.10;41.10;;;;;;5038838;28;20222;-73
2022/03/28 10:14:00;;;;;;;10.30;7.97;;;29.80;41.50;;;;;;5038422;28;20230;-73
2022/03/28 10:16:26;;;;;;;15.55;7.75;;;29.50;40.70;;;;;;5039603;28;20195;-73
2022/03/28 10:18:52;;;;;;;14.85;8.10;;;28.90;41.60;;;;;;5018730;28;20196;-72
2022/03/28 10:21:34;;;;;;;8.65;7.32;;;28.50;42.40;;;;;;5003317;28;20179;-72
2022/03/28 10:24:15;;;;;;;10.25;8.15;;;28.20;42.60;;;;;;5007747;28;20978;-72
2022/03/28 10:26:49;;;;;;;11.57;8.23;;;27.90;42.10;;;;;;5000780;28;20357;-72
2022/03/28 10:29:23;;;;;;;8.20;7.35;;;27.60;42.70;;;;;;5005345;28;20181;-72
2022/03/28 10:32:17;;;;;;;8.32;7.28;;;27.50;43.20;;;;;;5006573;28;20196;-73
2022/03/28 10:34:53;;;;;;;11.98;7.78;;;27.70;43.00;;;;;;5003605;28;20223;-73
2022/03/28 10:37:47;;;;;;;9.95;7.60;;;28.00;42.90;;;;;;5007979;28;20568;-72
2022/03/28 10:40:22;;;;;;;10.27;7.97;;;28.20;42.50;;;;;;4983060;28;20947;-72
2022/03/28 10:43:12;;;;;;;9.48;8.18;;;28.30;42.30;;;;;;5001665;28;20201;-72
2022/03/28 10:45:58;;;;;;;13.35;8.45;;;28.40;42.10;;;;;;5001576;28;20220;-73
2022/03/28 10:48:44;;;;;;;12.10;7.28;;;28.30;42.00;;;;;;5002363;28;20193;-73
2022/03/28 10:51:21;;;;;;;10.75;7.38;;;28.20;42.30;;;;;;5001778;28;20279;-73
2022/03/28 10:53:52;;;;;;;9.25;8.32;;;27.90;42.40;;;;;;5013497;28;20191;-70
2022/03/28 10:56:25;;;;;;;13.02;8.80;;;27.40;42.50;;;;;;5003116;28;20754;-69
2022/03/28 10:58:52;;;;;;;9.32;8.20;;;26.80;43.20;;;;;;5003447;28;20192;-72
2022/03/28 11:01:25;;;;;;;9.23;8.20;;;26.20;43.50;;;;;;4986674;28;20185;-71
2022/03/28 11:03:55;;;;;;;12.68;8.32;;;25.90;43.90;;;;;;5002088;28;20634;-71
2022/03/28 11:07:00;;;;;;;12.45;8.18;;;25.70;44.20;;;;;;5002773;28;20309;-71
2022/03/28 11:09:46;;;;;;;10.80;8.75;;;25.20;43.80;;;;;;5002522;28;20709;-72
2022/03/28 11:12:18;;;;;;;10.32;7.80;;;24.70;44.20;;;;;;5002807;28;20324;-71
2022/03/28 11:14:50;;;;;;;12.80;8.43;;;24.30;44.90;;;;;;5002810;28;22117;-71
2022/03/28 11:17:31;;;;;;;12.18;8.35;;;24.00;45.60;;;;;;5004387;28;20221;-72
2022/03/28 11:20:01;;;;;;;11.82;8.02;;;23.50;46.60;;;;;;5009772;28;20188;-71
2022/03/28 11:22:47;;;;;;;10.55;7.75;;;23.30;46.90;;;;;;5010951;28;20200;-72
2022/03/28 11:25:46;;;;;;;7.68;6.97;;;23.20;47.10;;;;;;5010036;28;20280;-73
2022/03/28 11:28:11;;;;;;;9.10;7.38;;;23.00;47.30;;;;;;5002105;28;20224;-72
2022/03/28 11:30:48;;;;;;;8.85;7.13;;;22.80;47.30;;;;;;5003094;28;20593;-71
2022/03/28 11:33:17;;;;;;;9.88;7.32;;;22.50;47.30;;;;;;4992464;28;20227;-71
2022/03/28 11:35:55;;;;;;;9.32;7.40;;;22.10;47.70;;;;;;4999604;28;20181;-71
2022/03/28 11:38:26;;;;;;;16.45;7.22;;;21.90;48.70;;;;;;5002839;28;20204;-71
2022/03/28 11:40:53;;;;;;;13.40;7.20;;;21.60;48.60;;;;;;5001979;28;20672;-71
2022/03/28 11:43:30;;;;;;;12.05;7.40;;;21.40;49.20;;;;;;5001243;28;20977;-71
2022/03/28 11:45:57;;;;;;;7.80;6.30;;;21.30;49.00;;;;;;5001669;28;20200;-71
2022/03/28 11:48:23;;;;;;;12.35;6.80;;;21.20;49.10;;;;;;5001829;28;20216;-71
2022/03/28 11:50:49;;;;;;;9.35;7.20;;;21.20;49.10;;;;;;4997126;28;20205;-71
2022/03/28 11:53:16;;;;;;;9.98;7.10;;;21.20;49.30;;;;;;4996210;28;20193;-72
2022/03/28 11:55:53;;;;;;;10.20;7.63;;;21.10;49.50;;;;;;4999299;28;20181;-72
2022/03/28 11:58:33;;;;;;;13.88;6.60;;;21.00;49.50;;;;;;4999330;28;20285;-71
2022/03/28 12:01:10;;;;;;;10.50;7.25;;;21.00;49.70;;;;;;5000409;28;20859;-71
2022/03/28 12:03:48;;;;;;;11.05;7.18;;;21.10;49.50;;;;;;4982200;28;20956;-72
2022/03/28 12:06:26;;;;;;;7.50;6.80;;;21.30;49.40;;;;;;5005523;28;20196;-71
2022/03/28 12:08:52;;;;;;;8.77;7.47;;;21.40;49.20;;;;;;5014881;28;20181;-71
2022/03/28 12:11:18;;;;;;;8.68;7.07;;;21.60;48.60;;;;;;5003303;28;20187;-71
2022/03/28 12:13:45;;;;;;;9.82;6.55;;;21.70;48.30;;;;;;5010921;28;20688;-71
2022/03/28 12:16:10;;;;;;;9.02;6.90;;;21.70;47.70;;;;;;5006041;28;20239;-72
2022/03/28 12:18:36;;;;;;;7.88;6.35;;;21.70;47.90;;;;;;5016279;28;20216;-71
2022/03/28 12:21:02;;;;;;;17.42;5.50;;;22.00;48.00;;;;;;5008433;28;20193;-72
2022/03/28 12:23:28;;;;;;;11.27;6.47;;;22.30;47.70;;;;;;5012850;28;20271;-71
2022/03/28 12:25:55;;;;;;;9.55;6.22;;;22.70;47.00;;;;;;5009349;28;20196;-71
2022/03/28 12:28:24;;;;;;;7.80;6.43;;;23.00;47.00;;;;;;5011092;28;20209;-71
2022/03/28 12:30:53;;;;;;;7.28;5.47;;;23.50;46.70;;;;;;5011741;28;20203;-72
2022/03/28 12:33:30;;;;;;;7.93;6.05;;;24.10;46.00;;;;;;5014863;28;20646;-71
2022/03/28 12:35:59;;;;;;;7.80;6.03;;;24.70;45.40;;;;;;5008895;28;20238;-71
2022/03/28 12:38:30;;;;;;;8.98;5.20;;;25.40;45.30;;;;;;5002498;28;20189;-72
2022/03/28 12:41:00;;;;;;;8.00;5.97;;;26.10;44.70;;;;;;5009998;28;20181;-72
2022/03/28 12:43:27;;;;;;;11.18;6.63;;;26.80;42.60;;;;;;5011402;28;20193;-72
2022/03/28 12:46:00;;;;;;;6.57;5.55;;;27.20;42.80;;;;;;5013085;28;20176;-72
2022/03/28 12:48:57;;;;;;;7.88;6.00;;;27.30;42.70;;;;;;5013742;28;20251;-72
2022/03/28 12:51:24;;;;;;;11.25;6.47;;;27.30;41.80;;;;;;4991886;28;20200;-72